CW5602 Weather Reports


Display with metric or nautical units.
time (UTC)temp
F
wind
direction
speed
MPH
gust
MPH
rain 1hr
in
rain 24hr
in
rain mn
in
humidity
%
barometer
mb
20190919020721 63 293 0.0 0.0 0.00 0.00 0.00 91 1020.8
20190919013720 63 293 0.0 2.0 0.00 0.00 0.00 91 1020.8
20190919013220 63 293 0.0 2.0 0.00 0.00 0.00 91 1020.7
20190919010721 63 293 1.0 2.0 0.00 0.00 0.00 90 1020.3
20190919003720 63 292 0.0 1.0 0.00 0.00 0.00 90 1019.9
20190919003221 63 292 0.0 2.0 0.00 0.00 0.00 90 1019.8
20190919000222 64 292 0.0 2.0 0.00 0.00 0.00 91 1019.3
20190918233720 64 274 0.0 2.0 0.00 0.00 0.00 89 1019.5
20190918230221 65 274 0.0 3.0 0.00 0.00 0.00 87 1019.5
20190918223721 66 273 0.0 2.0 0.00 0.00 0.00 87 1019.4
20190918223221 66 273 0.0 0.0 0.00 0.00 0.00 86 1019.1
20190918220720 67 273 0.0 0.0 0.00 0.00 0.00 86 1019.2
20190918210720 68 227 0.0 6.0 0.00 0.00 0.00 84 1018.9
20190918210221 68 301 1.0 7.0 0.00 0.00 0.00 83 1018.9
20190918203720 70 292 2.0 5.0 0.00 0.00 0.00 81 1018.6
20190918203221 70 327 2.0 7.0 0.00 0.00 0.00 81 1018.6
20190918200721 71 338 0.0 2.0 0.00 0.00 0.00 81 1018.6
20190918200220 71 311 0.0 7.0 0.00 0.00 0.00 81 1018.5
20190918193720 73 351 3.0 7.0 0.00 0.00 0.00 80 1018.4
20190918190221 72 315 0.0 5.0 0.00 0.00 0.00 82 1018.5
20190918183720 73 327 3.0 6.0 0.00 0.00 0.00 80 1018.7
20190918183221 73 290 3.0 12.0 0.00 0.00 0.00 78 1018.8
20190918180221 73 359 4.0 10.0 0.00 0.00 0.00 81 1018.9
20190918170220 70 336 3.0 3.0 0.00 0.00 0.00 86 1018.5
20190918163721 70 80 1.0 3.0 0.00 0.00 0.00 88 1018.7
20190918163220 70 328 0.0 6.0 0.00 0.00 0.00 87 1018.6
20190918160720 69 349 1.0 2.0 0.00 0.00 0.00 89 1018.8
20190918160221 69 358 2.0 3.0 0.00 0.00 0.00 90 1018.9
20190918153721 69 325 0.0 3.0 0.00 0.00 0.00 90 1019.0
20190918153221 69 326 0.0 2.0 0.00 0.00 0.00 89 1019.0
20190918150721 69 329 0.0 1.0 0.00 0.00 0.00 89 1019.1
20190918140217 68 313 1.0 3.0 0.00 0.00 0.00 92 1018.8
20190918133715 67 155 0.0 0.0 0.00 0.00 0.00 92 1018.8
20190918130715 65 155 1.0 2.0 0.00 0.00 0.00 96 1018.9
20190918123715 64 155 0.0 0.0 0.00 0.00 0.00 95 1018.9
20190918120715 64 155 1.0 2.0 0.00 0.00 0.00 95 1018.7
20190918120215 64 155 1.0 2.0 0.00 0.00 0.00 95 1018.7
20190918113715 64 155 1.0 2.0 0.00 0.00 0.00 94 1018.5
20190918113216 65 155 0.0 2.0 0.00 0.00 0.00 95 1018.4
20190918103716 65 155 0.0 0.0 0.00 0.00 0.00 95 1018.1
20190918103215 65 155 0.0 0.0 0.00 0.00 0.00 95 1018.2
20190918100216 65 155 0.0 2.0 0.00 0.00 0.00 95 1018.1
20190918093716 65 155 0.0 1.0 0.00 0.00 0.00 94 1017.9
20190918093215 65 155 0.0 1.0 0.00 0.00 0.00 94 1017.9
20190918090715 65 155 0.0 0.0 0.00 0.00 0.00 94 1018.0
20190918090216 65 155 0.0 0.0 0.00 0.00 0.00 94 1017.9
20190918083715 65 155 0.0 0.0 0.00 0.00 0.00 94 1017.8
20190918083216 65 155 0.0 1.0 0.00 0.00 0.00 94 1017.8
20190918080716 65 155 0.0 0.0 0.00 0.00 0.00 94 1017.9
20190918073715 65 155 0.0 1.0 0.00 0.00 0.00 93 1018.0
20190918073216 65 155 1.0 2.0 0.00 0.00 0.00 93 1017.9
20190918070216 65 155 1.0 3.0 0.00 0.00 0.00 92 1017.8
20190918063216 65 155 2.0 3.0 0.00 0.00 0.00 92 1017.8
20190918060715 66 155 2.0 3.0 0.00 0.00 0.00 91 1017.9
20190918060215 66 155 2.0 3.0 0.00 0.00 0.00 91 1017.9
20190918053715 66 155 2.0 3.0 0.00 0.00 0.00 90 1017.7
20190918050716 67 155 0.0 0.0 0.00 0.00 0.00 89 1017.6
20190918043215 68 155 0.0 3.0 0.00 0.00 0.00 86 1017.4
20190918040715 69 155 2.0 3.0 0.00 0.00 0.00 85 1017.4
20190918040215 69 155 1.0 2.0 0.00 0.00 0.00 86 1017.4
20190918033715 69 155 0.0 0.0 0.00 0.00 0.00 86 1017.6
20190918033215 69 155 0.0 2.0 0.00 0.00 0.00 87 1017.6
20190918030215 69 155 1.0 3.0 0.00 0.00 0.00 83 1017.7
20190918023715 70 155 2.0 3.0 0.00 0.00 0.00 83 1017.5
20190918023215 70 155 3.0 3.0 0.00 0.00 0.00 83 1017.5